sensor_id;sensor_type;location;lat;lon;timestamp;P1;durP1;ratioP1;P2;durP2;ratioP2
49416;SDS011;35290;39.550;8.786;2022-11-15T00:01:22;16.50;;;9.85;;
49416;SDS011;35290;39.550;8.786;2022-11-15T00:03:50;14.68;;;10.55;;
49416;SDS011;35290;39.550;8.786;2022-11-15T00:06:16;14.35;;;9.93;;
49416;SDS011;35290;39.550;8.786;2022-11-15T00:08:41;16.85;;;10.95;;
49416;SDS011;35290;39.550;8.786;2022-11-15T00:11:08;13.70;;;9.73;;
49416;SDS011;35290;39.550;8.786;2022-11-15T00:13:35;12.65;;;9.60;;
49416;SDS011;35290;39.550;8.786;2022-11-15T00:16:01;14.20;;;9.55;;
49416;SDS011;35290;39.550;8.786;2022-11-15T00:18:27;14.10;;;9.73;;
49416;SDS011;35290;39.550;8.786;2022-11-15T00:20:54;14.55;;;9.43;;
49416;SDS011;35290;39.550;8.786;2022-11-15T00:23:19;14.70;;;9.38;;
49416;SDS011;35290;39.550;8.786;2022-11-15T00:25:45;12.50;;;9.60;;
49416;SDS011;35290;39.550;8.786;2022-11-15T00:28:10;12.90;;;9.27;;
49416;SDS011;35290;39.550;8.786;2022-11-15T00:30:36;15.05;;;9.73;;
49416;SDS011;35290;39.550;8.786;2022-11-15T00:33:04;12.45;;;9.02;;
49416;SDS011;35290;39.550;8.786;2022-11-15T00:35:31;15.65;;;9.00;;
49416;SDS011;35290;39.550;8.786;2022-11-15T00:37:58;19.50;;;9.27;;
49416;SDS011;35290;39.550;8.786;2022-11-15T00:40:24;14.88;;;10.20;;
49416;SDS011;35290;39.550;8.786;2022-11-15T00:42:51;14.18;;;9.05;;
49416;SDS011;35290;39.550;8.786;2022-11-15T00:45:16;10.98;;;9.27;;
49416;SDS011;35290;39.550;8.786;2022-11-15T00:47:45;19.35;;;9.15;;
49416;SDS011;35290;39.550;8.786;2022-11-15T00:50:11;14.63;;;9.88;;
49416;SDS011;35290;39.550;8.786;2022-11-15T00:52:37;16.90;;;10.52;;
49416;SDS011;35290;39.550;8.786;2022-11-15T00:55:02;16.48;;;9.77;;
49416;SDS011;35290;39.550;8.786;2022-11-15T00:57:28;17.13;;;9.63;;
49416;SDS011;35290;39.550;8.786;2022-11-15T00:59:53;13.77;;;9.70;;
49416;SDS011;35290;39.550;8.786;2022-11-15T01:02:19;13.27;;;9.45;;
49416;SDS011;35290;39.550;8.786;2022-11-15T01:04:44;11.75;;;9.43;;
49416;SDS011;35290;39.550;8.786;2022-11-15T01:07:10;11.20;;;8.70;;
49416;SDS011;35290;39.550;8.786;2022-11-15T01:09:35;14.93;;;8.75;;
49416;SDS011;35290;39.550;8.786;2022-11-15T01:12:01;14.45;;;9.38;;
49416;SDS011;35290;39.550;8.786;2022-11-15T01:14:27;15.77;;;9.25;;
49416;SDS011;35290;39.550;8.786;2022-11-15T01:16:52;11.70;;;8.20;;
49416;SDS011;35290;39.550;8.786;2022-11-15T01:19:18;10.13;;;7.85;;
49416;SDS011;35290;39.550;8.786;2022-11-15T01:21:43;10.35;;;8.25;;
49416;SDS011;35290;39.550;8.786;2022-11-15T01:24:11;13.85;;;8.07;;
49416;SDS011;35290;39.550;8.786;2022-11-15T01:26:38;14.05;;;7.85;;
49416;SDS011;35290;39.550;8.786;2022-11-15T01:29:03;12.15;;;7.40;;
49416;SDS011;35290;39.550;8.786;2022-11-15T01:31:29;10.27;;;6.60;;
49416;SDS011;35290;39.550;8.786;2022-11-15T01:33:54;9.45;;;6.45;;
49416;SDS011;35290;39.550;8.786;2022-11-15T01:36:21;9.35;;;6.00;;
49416;SDS011;35290;39.550;8.786;2022-11-15T01:38:47;9.68;;;6.20;;
49416;SDS011;35290;39.550;8.786;2022-11-15T01:41:19;11.20;;;7.00;;
49416;SDS011;35290;39.550;8.786;2022-11-15T01:43:48;11.50;;;7.22;;
49416;SDS011;35290;39.550;8.786;2022-11-15T01:46:35;8.32;;;6.80;;
49416;SDS011;35290;39.550;8.786;2022-11-15T01:49:02;8.63;;;6.90;;
49416;SDS011;35290;39.550;8.786;2022-11-15T01:51:31;11.20;;;6.90;;
49416;SDS011;35290;39.550;8.786;2022-11-15T01:54:02;10.70;;;7.50;;
49416;SDS011;35290;39.550;8.786;2022-11-15T01:58:56;11.95;;;7.32;;
49416;SDS011;35290;39.550;8.786;2022-11-15T02:01:24;10.13;;;7.32;;
49416;SDS011;35290;39.550;8.786;2022-11-15T02:06:23;8.90;;;6.93;;
49416;SDS011;35290;39.550;8.786;2022-11-15T02:08:49;11.63;;;6.80;;
49416;SDS011;35290;39.550;8.786;2022-11-15T02:11:16;9.77;;;6.88;;
49416;SDS011;35290;39.550;8.786;2022-11-15T02:13:42;10.93;;;6.93;;
49416;SDS011;35290;39.550;8.786;2022-11-15T02:29:53;26.38;;;6.93;;
49416;SDS011;35290;39.550;8.786;2022-11-15T02:42:50;8.50;;;7.05;;
49416;SDS011;35290;39.550;8.786;2022-11-15T02:46:01;10.95;;;6.65;;
49416;SDS011;35290;39.550;8.786;2022-11-15T02:48:39;8.05;;;6.53;;
49416;SDS011;35290;39.550;8.786;2022-11-15T02:51:06;9.18;;;6.65;;
49416;SDS011;35290;39.550;8.786;2022-11-15T02:53:31;9.10;;;6.57;;
49416;SDS011;35290;39.550;8.786;2022-11-15T02:55:57;9.35;;;6.55;;
49416;SDS011;35290;39.550;8.786;2022-11-15T03:03:33;10.88;;;6.95;;
49416;SDS011;35290;39.550;8.786;2022-11-15T03:08:50;9.23;;;6.45;;
49416;SDS011;35290;39.550;8.786;2022-11-15T03:11:22;10.68;;;6.57;;
49416;SDS011;35290;39.550;8.786;2022-11-15T03:21:41;11.55;;;10.43;;
49416;SDS011;35290;39.550;8.786;2022-11-15T03:24:07;9.40;;;8.02;;
49416;SDS011;35290;39.550;8.786;2022-11-15T03:26:33;7.90;;;6.32;;
49416;SDS011;35290;39.550;8.786;2022-11-15T03:29:43;8.00;;;5.80;;
49416;SDS011;35290;39.550;8.786;2022-11-15T03:31:52;7.88;;;5.00;;
49416;SDS011;35290;39.550;8.786;2022-11-15T03:37:40;17.13;;;9.18;;
49416;SDS011;35290;39.550;8.786;2022-11-15T03:40:11;11.10;;;10.00;;
49416;SDS011;35290;39.550;8.786;2022-11-15T03:42:48;12.13;;;11.00;;
49416;SDS011;35290;39.550;8.786;2022-11-15T03:45:27;13.50;;;8.55;;
49416;SDS011;35290;39.550;8.786;2022-11-15T03:48:01;10.27;;;7.35;;
49416;SDS011;35290;39.550;8.786;2022-11-15T03:50:30;6.85;;;5.57;;
49416;SDS011;35290;39.550;8.786;2022-11-15T03:52:56;9.00;;;5.30;;
49416;SDS011;35290;39.550;8.786;2022-11-15T03:55:22;8.07;;;4.35;;
49416;SDS011;35290;39.550;8.786;2022-11-15T03:57:50;6.47;;;4.10;;
49416;SDS011;35290;39.550;8.786;2022-11-15T04:00:16;5.82;;;4.15;;
49416;SDS011;35290;39.550;8.786;2022-11-15T04:02:42;6.80;;;4.00;;
49416;SDS011;35290;39.550;8.786;2022-11-15T04:05:07;5.68;;;4.10;;
49416;SDS011;35290;39.550;8.786;2022-11-15T04:07:33;7.82;;;5.25;;
49416;SDS011;35290;39.550;8.786;2022-11-15T04:09:58;9.00;;;6.03;;
49416;SDS011;35290;39.550;8.786;2022-11-15T04:12:27;9.15;;;7.32;;
49416;SDS011;35290;39.550;8.786;2022-11-15T04:14:57;23.77;;;7.47;;
49416;SDS011;35290;39.550;8.786;2022-11-15T04:17:32;14.85;;;6.93;;
49416;SDS011;35290;39.550;8.786;2022-11-15T04:20:05;6.15;;;5.50;;
49416;SDS011;35290;39.550;8.786;2022-11-15T04:23:17;7.65;;;5.40;;
49416;SDS011;35290;39.550;8.786;2022-11-15T04:26:03;8.43;;;4.95;;
49416;SDS011;35290;39.550;8.786;2022-11-15T04:28:30;7.75;;;4.35;;
49416;SDS011;35290;39.550;8.786;2022-11-15T04:30:55;9.02;;;4.65;;
49416;SDS011;35290;39.550;8.786;2022-11-15T04:33:21;5.32;;;4.38;;
49416;SDS011;35290;39.550;8.786;2022-11-15T04:35:47;7.57;;;4.55;;
49416;SDS011;35290;39.550;8.786;2022-11-15T04:38:32;13.98;;;6.28;;
49416;SDS011;35290;39.550;8.786;2022-11-15T04:40:58;10.75;;;7.18;;
49416;SDS011;35290;39.550;8.786;2022-11-15T04:43:24;11.63;;;5.95;;
49416;SDS011;35290;39.550;8.786;2022-11-15T04:45:49;7.85;;;6.03;;
49416;SDS011;35290;39.550;8.786;2022-11-15T04:48:15;7.32;;;5.32;;
49416;SDS011;35290;39.550;8.786;2022-11-15T04:50:40;8.90;;;5.35;;
49416;SDS011;35290;39.550;8.786;2022-11-15T04:53:06;12.45;;;5.05;;
49416;SDS011;35290;39.550;8.786;2022-11-15T04:55:32;10.20;;;4.85;;
49416;SDS011;35290;39.550;8.786;2022-11-15T04:57:58;9.63;;;5.07;;
49416;SDS011;35290;39.550;8.786;2022-11-15T05:00:26;20.23;;;5.05;;
49416;SDS011;35290;39.550;8.786;2022-11-15T05:02:53;9.30;;;4.63;;
49416;SDS011;35290;39.550;8.786;2022-11-15T05:05:37;13.18;;;4.65;;
49416;SDS011;35290;39.550;8.786;2022-11-15T05:08:03;26.17;;;5.55;;
49416;SDS011;35290;39.550;8.786;2022-11-15T05:10:29;11.80;;;5.13;;
49416;SDS011;35290;39.550;8.786;2022-11-15T05:12:54;12.80;;;4.95;;
49416;SDS011;35290;39.550;8.786;2022-11-15T05:15:20;8.85;;;5.55;;
49416;SDS011;35290;39.550;8.786;2022-11-15T05:17:45;7.53;;;5.10;;
49416;SDS011;35290;39.550;8.786;2022-11-15T05:20:11;9.68;;;5.93;;
49416;SDS011;35290;39.550;8.786;2022-11-15T05:22:37;9.23;;;5.20;;
49416;SDS011;35290;39.550;8.786;2022-11-15T05:25:03;6.32;;;5.05;;
49416;SDS011;35290;39.550;8.786;2022-11-15T05:27:29;10.80;;;4.97;;
49416;SDS011;35290;39.550;8.786;2022-11-15T05:29:55;7.53;;;5.07;;
49416;SDS011;35290;39.550;8.786;2022-11-15T05:32:20;8.73;;;5.57;;
49416;SDS011;35290;39.550;8.786;2022-11-15T05:34:46;10.00;;;5.78;;
49416;SDS011;35290;39.550;8.786;2022-11-15T05:37:11;6.45;;;5.22;;
49416;SDS011;35290;39.550;8.786;2022-11-15T05:39:38;7.88;;;5.28;;
49416;SDS011;35290;39.550;8.786;2022-11-15T05:42:10;8.63;;;5.90;;
49416;SDS011;35290;39.550;8.786;2022-11-15T05:44:41;14.38;;;6.18;;
49416;SDS011;35290;39.550;8.786;2022-11-15T05:47:08;10.25;;;5.93;;
49416;SDS011;35290;39.550;8.786;2022-11-15T05:49:38;11.52;;;5.88;;
49416;SDS011;35290;39.550;8.786;2022-11-15T05:52:05;8.07;;;5.07;;
49416;SDS011;35290;39.550;8.786;2022-11-15T05:54:32;10.48;;;4.78;;
49416;SDS011;35290;39.550;8.786;2022-11-15T05:56:59;8.00;;;4.80;;
49416;SDS011;35290;39.550;8.786;2022-11-15T05:59:25;8.77;;;4.70;;
49416;SDS011;35290;39.550;8.786;2022-11-15T06:01:50;8.80;;;4.90;;
49416;SDS011;35290;39.550;8.786;2022-11-15T06:04:16;11.50;;;5.20;;
49416;SDS011;35290;39.550;8.786;2022-11-15T06:06:41;11.27;;;5.60;;
49416;SDS011;35290;39.550;8.786;2022-11-15T06:09:08;10.60;;;5.32;;
49416;SDS011;35290;39.550;8.786;2022-11-15T06:11:35;13.18;;;6.15;;
49416;SDS011;35290;39.550;8.786;2022-11-15T06:14:00;15.15;;;5.28;;
49416;SDS011;35290;39.550;8.786;2022-11-15T06:16:26;10.73;;;4.85;;
49416;SDS011;35290;39.550;8.786;2022-11-15T06:18:51;7.60;;;4.50;;
49416;SDS011;35290;39.550;8.786;2022-11-15T06:21:16;13.02;;;4.65;;
49416;SDS011;35290;39.550;8.786;2022-11-15T06:23:42;7.50;;;4.13;;
49416;SDS011;35290;39.550;8.786;2022-11-15T06:26:08;8.35;;;4.30;;
49416;SDS011;35290;39.550;8.786;2022-11-15T06:28:33;11.45;;;4.25;;
49416;SDS011;35290;39.550;8.786;2022-11-15T06:31:03;23.58;;;4.57;;
49416;SDS011;35290;39.550;8.786;2022-11-15T06:33:29;22.33;;;7.80;;
49416;SDS011;35290;39.550;8.786;2022-11-15T06:35:55;35.70;;;22.90;;
49416;SDS011;35290;39.550;8.786;2022-11-15T06:38:20;39.15;;;25.13;;
49416;SDS011;35290;39.550;8.786;2022-11-15T06:40:46;71.72;;;45.58;;
49416;SDS011;35290;39.550;8.786;2022-11-15T06:43:11;71.40;;;38.80;;
49416;SDS011;35290;39.550;8.786;2022-11-15T06:45:37;57.58;;;33.95;;
49416;SDS011;35290;39.550;8.786;2022-11-15T06:48:02;50.95;;;29.58;;
49416;SDS011;35290;39.550;8.786;2022-11-15T06:50:28;43.03;;;25.85;;
49416;SDS011;35290;39.550;8.786;2022-11-15T06:52:53;35.22;;;23.65;;
49416;SDS011;35290;39.550;8.786;2022-11-15T06:55:20;44.63;;;25.15;;
49416;SDS011;35290;39.550;8.786;2022-11-15T06:57:46;42.45;;;21.63;;
49416;SDS011;35290;39.550;8.786;2022-11-15T07:00:12;19.40;;;11.23;;
49416;SDS011;35290;39.550;8.786;2022-11-15T07:02:38;16.02;;;10.15;;
49416;SDS011;35290;39.550;8.786;2022-11-15T07:05:04;19.27;;;7.88;;
49416;SDS011;35290;39.550;8.786;2022-11-15T07:07:30;10.68;;;5.53;;
49416;SDS011;35290;39.550;8.786;2022-11-15T07:09:55;6.65;;;5.13;;
49416;SDS011;35290;39.550;8.786;2022-11-15T07:12:21;8.82;;;5.35;;
49416;SDS011;35290;39.550;8.786;2022-11-15T07:14:46;11.13;;;4.63;;
49416;SDS011;35290;39.550;8.786;2022-11-15T07:17:12;10.30;;;4.80;;
49416;SDS011;35290;39.550;8.786;2022-11-15T07:19:37;13.68;;;4.18;;
49416;SDS011;35290;39.550;8.786;2022-11-15T07:22:02;8.32;;;3.70;;
49416;SDS011;35290;39.550;8.786;2022-11-15T07:24:28;7.65;;;3.70;;
49416;SDS011;35290;39.550;8.786;2022-11-15T07:26:53;6.60;;;3.92;;
49416;SDS011;35290;39.550;8.786;2022-11-15T07:29:19;8.90;;;3.60;;
49416;SDS011;35290;39.550;8.786;2022-11-15T07:31:44;9.10;;;3.47;;
49416;SDS011;35290;39.550;8.786;2022-11-15T07:34:10;7.70;;;3.70;;
49416;SDS011;35290;39.550;8.786;2022-11-15T07:36:35;13.70;;;3.55;;
49416;SDS011;35290;39.550;8.786;2022-11-15T07:39:01;10.85;;;3.42;;
49416;SDS011;35290;39.550;8.786;2022-11-15T07:41:26;7.38;;;3.10;;
49416;SDS011;35290;39.550;8.786;2022-11-15T07:43:52;8.98;;;3.42;;
49416;SDS011;35290;39.550;8.786;2022-11-15T07:46:17;9.82;;;3.60;;
49416;SDS011;35290;39.550;8.786;2022-11-15T07:48:43;8.50;;;3.30;;
49416;SDS011;35290;39.550;8.786;2022-11-15T07:51:10;7.18;;;3.03;;
49416;SDS011;35290;39.550;8.786;2022-11-15T07:53:37;8.45;;;2.92;;
49416;SDS011;35290;39.550;8.786;2022-11-15T07:56:05;8.95;;;2.95;;
49416;SDS011;35290;39.550;8.786;2022-11-15T07:58:33;3.75;;;2.40;;
49416;SDS011;35290;39.550;8.786;2022-11-15T08:01:06;9.45;;;2.95;;
49416;SDS011;35290;39.550;8.786;2022-11-15T08:03:32;6.53;;;2.95;;
49416;SDS011;35290;39.550;8.786;2022-11-15T08:05:58;7.28;;;2.65;;
49416;SDS011;35290;39.550;8.786;2022-11-15T08:08:24;12.65;;;3.08;;
49416;SDS011;35290;39.550;8.786;2022-11-15T08:10:52;8.00;;;2.60;;
49416;SDS011;35290;39.550;8.786;2022-11-15T08:13:18;6.70;;;2.60;;
49416;SDS011;35290;39.550;8.786;2022-11-15T08:15:43;6.90;;;2.53;;
49416;SDS011;35290;39.550;8.786;2022-11-15T08:18:18;4.85;;;2.63;;
49416;SDS011;35290;39.550;8.786;2022-11-15T08:20:43;20.33;;;3.40;;
49416;SDS011;35290;39.550;8.786;2022-11-15T08:23:11;20.63;;;3.08;;
49416;SDS011;35290;39.550;8.786;2022-11-15T08:25:40;11.03;;;3.57;;
49416;SDS011;35290;39.550;8.786;2022-11-15T08:28:06;11.48;;;2.80;;
49416;SDS011;35290;39.550;8.786;2022-11-15T08:30:39;9.93;;;2.90;;
49416;SDS011;35290;39.550;8.786;2022-11-15T08:33:09;4.70;;;2.88;;
49416;SDS011;35290;39.550;8.786;2022-11-15T08:35:35;10.40;;;3.20;;
49416;SDS011;35290;39.550;8.786;2022-11-15T08:38:01;10.27;;;3.20;;
49416;SDS011;35290;39.550;8.786;2022-11-15T08:40:26;8.50;;;3.03;;
49416;SDS011;35290;39.550;8.786;2022-11-15T08:42:52;6.65;;;3.00;;
49416;SDS011;35290;39.550;8.786;2022-11-15T08:45:17;5.65;;;3.10;;
49416;SDS011;35290;39.550;8.786;2022-11-15T08:47:44;10.20;;;3.40;;
49416;SDS011;35290;39.550;8.786;2022-11-15T08:50:09;6.38;;;3.15;;
49416;SDS011;35290;39.550;8.786;2022-11-15T08:52:35;24.58;;;3.33;;
49416;SDS011;35290;39.550;8.786;2022-11-15T08:55:00;13.32;;;3.30;;
49416;SDS011;35290;39.550;8.786;2022-11-15T08:57:28;9.25;;;3.00;;
49416;SDS011;35290;39.550;8.786;2022-11-15T08:59:55;8.85;;;3.28;;
49416;SDS011;35290;39.550;8.786;2022-11-15T09:02:20;6.75;;;2.90;;
49416;SDS011;35290;39.550;8.786;2022-11-15T09:04:46;6.50;;;2.78;;
49416;SDS011;35290;39.550;8.786;2022-11-15T09:07:12;7.43;;;2.88;;
49416;SDS011;35290;39.550;8.786;2022-11-15T09:09:38;11.57;;;3.28;;
49416;SDS011;35290;39.550;8.786;2022-11-15T09:12:04;13.15;;;3.03;;
49416;SDS011;35290;39.550;8.786;2022-11-15T09:14:30;9.57;;;2.78;;
49416;SDS011;35290;39.550;8.786;2022-11-15T09:16:56;6.25;;;2.95;;
49416;SDS011;35290;39.550;8.786;2022-11-15T09:19:21;15.00;;;3.28;;
49416;SDS011;35290;39.550;8.786;2022-11-15T09:21:47;11.00;;;2.80;;
49416;SDS011;35290;39.550;8.786;2022-11-15T09:24:12;11.07;;;2.97;;
49416;SDS011;35290;39.550;8.786;2022-11-15T09:26:38;13.13;;;3.33;;
49416;SDS011;35290;39.550;8.786;2022-11-15T09:29:04;31.58;;;4.25;;
49416;SDS011;35290;39.550;8.786;2022-11-15T09:31:29;37.80;;;4.75;;
49416;SDS011;35290;39.550;8.786;2022-11-15T09:33:55;42.90;;;5.13;;
49416;SDS011;35290;39.550;8.786;2022-11-15T09:36:29;23.25;;;4.82;;
49416;SDS011;35290;39.550;8.786;2022-11-15T09:38:54;77.22;;;6.22;;
49416;SDS011;35290;39.550;8.786;2022-11-15T09:41:34;21.42;;;5.18;;
49416;SDS011;35290;39.550;8.786;2022-11-15T09:49:52;11.77;;;4.32;;
49416;SDS011;35290;39.550;8.786;2022-11-15T09:52:19;42.67;;;5.65;;
49416;SDS011;35290;39.550;8.786;2022-11-15T09:54:46;27.15;;;5.40;;
49416;SDS011;35290;39.550;8.786;2022-11-15T09:57:26;17.23;;;4.63;;
49416;SDS011;35290;39.550;8.786;2022-11-15T10:05:12;14.60;;;4.00;;
49416;SDS011;35290;39.550;8.786;2022-11-15T10:13:02;17.73;;;4.15;;
49416;SDS011;35290;39.550;8.786;2022-11-15T10:15:28;17.98;;;4.75;;
49416;SDS011;35290;39.550;8.786;2022-11-15T10:20:41;10.77;;;4.22;;
49416;SDS011;35290;39.550;8.786;2022-11-15T10:23:13;19.00;;;4.70;;
49416;SDS011;35290;39.550;8.786;2022-11-15T10:25:40;14.63;;;3.83;;
49416;SDS011;35290;39.550;8.786;2022-11-15T10:35:47;11.02;;;4.38;;
49416;SDS011;35290;39.550;8.786;2022-11-15T10:38:13;13.68;;;6.72;;
49416;SDS011;35290;39.550;8.786;2022-11-15T10:40:39;13.00;;;5.68;;
49416;SDS011;35290;39.550;8.786;2022-11-15T10:43:12;17.55;;;9.05;;
49416;SDS011;35290;39.550;8.786;2022-11-15T10:45:40;14.95;;;7.20;;
49416;SDS011;35290;39.550;8.786;2022-11-15T10:50:46;12.50;;;4.40;;
49416;SDS011;35290;39.550;8.786;2022-11-15T10:55:47;8.07;;;3.55;;
49416;SDS011;35290;39.550;8.786;2022-11-15T10:58:22;10.02;;;3.60;;
49416;SDS011;35290;39.550;8.786;2022-11-15T11:00:53;11.18;;;3.30;;
49416;SDS011;35290;39.550;8.786;2022-11-15T11:03:35;7.95;;;3.08;;
49416;SDS011;35290;39.550;8.786;2022-11-15T11:06:08;12.60;;;3.35;;
49416;SDS011;35290;39.550;8.786;2022-11-15T11:08:40;11.57;;;3.38;;
49416;SDS011;35290;39.550;8.786;2022-11-15T11:11:22;9.50;;;3.47;;
49416;SDS011;35290;39.550;8.786;2022-11-15T11:13:48;9.70;;;4.35;;
49416;SDS011;35290;39.550;8.786;2022-11-15T11:19:02;12.43;;;5.30;;
49416;SDS011;35290;39.550;8.786;2022-11-15T11:35:17;14.35;;;3.83;;
49416;SDS011;35290;39.550;8.786;2022-11-15T11:46:31;62.80;;;7.53;;
49416;SDS011;35290;39.550;8.786;2022-11-15T11:49:10;17.65;;;6.85;;
49416;SDS011;35290;39.550;8.786;2022-11-15T11:51:45;18.10;;;6.32;;
49416;SDS011;35290;39.550;8.786;2022-11-15T11:57:05;20.60;;;8.95;;
49416;SDS011;35290;39.550;8.786;2022-11-15T11:59:43;16.00;;;8.90;;
49416;SDS011;35290;39.550;8.786;2022-11-15T12:02:21;13.80;;;7.25;;
49416;SDS011;35290;39.550;8.786;2022-11-15T12:04:52;15.05;;;6.22;;
49416;SDS011;35290;39.550;8.786;2022-11-15T12:07:24;11.57;;;4.97;;
49416;SDS011;35290;39.550;8.786;2022-11-15T12:12:44;17.67;;;6.32;;
49416;SDS011;35290;39.550;8.786;2022-11-15T12:15:22;14.05;;;5.15;;
49416;SDS011;35290;39.550;8.786;2022-11-15T12:17:53;14.25;;;4.28;;
49416;SDS011;35290;39.550;8.786;2022-11-15T12:20:21;15.35;;;4.60;;
49416;SDS011;35290;39.550;8.786;2022-11-15T12:25:44;22.50;;;4.40;;
49416;SDS011;35290;39.550;8.786;2022-11-15T12:30:43;13.73;;;3.92;;
49416;SDS011;35290;39.550;8.786;2022-11-15T12:33:28;40.70;;;4.85;;
49416;SDS011;35290;39.550;8.786;2022-11-15T12:35:59;25.52;;;6.15;;
49416;SDS011;35290;39.550;8.786;2022-11-15T12:41:20;57.75;;;7.53;;
49416;SDS011;35290;39.550;8.786;2022-11-15T12:43:47;36.53;;;6.75;;
49416;SDS011;35290;39.550;8.786;2022-11-15T12:46:58;33.40;;;5.60;;
49416;SDS011;35290;39.550;8.786;2022-11-15T13:22:40;10.70;;;3.22;;
49416;SDS011;35290;39.550;8.786;2022-11-15T13:27:58;13.90;;;3.13;;
49416;SDS011;35290;39.550;8.786;2022-11-15T13:30:25;13.93;;;2.95;;
49416;SDS011;35290;39.550;8.786;2022-11-15T13:32:52;8.88;;;2.75;;
49416;SDS011;35290;39.550;8.786;2022-11-15T13:35:25;11.40;;;3.10;;
49416;SDS011;35290;39.550;8.786;2022-11-15T13:37:52;10.35;;;2.78;;
49416;SDS011;35290;39.550;8.786;2022-11-15T13:43:47;13.70;;;2.80;;
49416;SDS011;35290;39.550;8.786;2022-11-15T13:46:16;15.15;;;3.20;;
49416;SDS011;35290;39.550;8.786;2022-11-15T13:48:46;12.65;;;3.00;;
49416;SDS011;35290;39.550;8.786;2022-11-15T13:54:02;9.60;;;2.60;;
49416;SDS011;35290;39.550;8.786;2022-11-15T13:56:37;12.02;;;3.15;;
49416;SDS011;35290;39.550;8.786;2022-11-15T13:59:09;9.98;;;2.88;;
49416;SDS011;35290;39.550;8.786;2022-11-15T14:01:35;10.70;;;2.83;;
49416;SDS011;35290;39.550;8.786;2022-11-15T14:04:01;7.75;;;2.70;;
49416;SDS011;35290;39.550;8.786;2022-11-15T14:06:28;8.63;;;2.67;;
49416;SDS011;35290;39.550;8.786;2022-11-15T14:11:35;9.77;;;2.70;;
49416;SDS011;35290;39.550;8.786;2022-11-15T14:16:37;15.38;;;2.70;;
49416;SDS011;35290;39.550;8.786;2022-11-15T14:22:08;11.02;;;2.70;;
49416;SDS011;35290;39.550;8.786;2022-11-15T14:24:39;15.07;;;2.67;;
49416;SDS011;35290;39.550;8.786;2022-11-15T14:27:22;10.73;;;2.70;;
49416;SDS011;35290;39.550;8.786;2022-11-15T14:29:49;12.07;;;2.90;;
49416;SDS011;35290;39.550;8.786;2022-11-15T14:32:19;10.70;;;2.90;;
49416;SDS011;35290;39.550;8.786;2022-11-15T14:34:47;6.93;;;2.97;;
49416;SDS011;35290;39.550;8.786;2022-11-15T14:39:54;9.98;;;2.72;;
49416;SDS011;35290;39.550;8.786;2022-11-15T14:42:20;13.18;;;3.80;;
49416;SDS011;35290;39.550;8.786;2022-11-15T14:44:46;7.75;;;2.72;;
49416;SDS011;35290;39.550;8.786;2022-11-15T14:47:12;14.43;;;3.15;;
49416;SDS011;35290;39.550;8.786;2022-11-15T14:49:38;10.05;;;3.10;;
49416;SDS011;35290;39.550;8.786;2022-11-15T14:52:07;11.95;;;2.60;;
49416;SDS011;35290;39.550;8.786;2022-11-15T14:54:54;7.68;;;2.67;;
49416;SDS011;35290;39.550;8.786;2022-11-15T14:57:20;10.63;;;2.92;;
49416;SDS011;35290;39.550;8.786;2022-11-15T14:59:46;8.95;;;2.90;;
49416;SDS011;35290;39.550;8.786;2022-11-15T15:02:18;11.43;;;2.95;;
49416;SDS011;35290;39.550;8.786;2022-11-15T15:04:45;8.68;;;2.90;;
49416;SDS011;35290;39.550;8.786;2022-11-15T15:07:10;6.32;;;2.60;;
49416;SDS011;35290;39.550;8.786;2022-11-15T15:09:36;9.13;;;2.60;;
49416;SDS011;35290;39.550;8.786;2022-11-15T15:12:01;11.73;;;2.80;;
49416;SDS011;35290;39.550;8.786;2022-11-15T15:14:27;11.57;;;2.75;;
49416;SDS011;35290;39.550;8.786;2022-11-15T15:16:52;15.85;;;3.03;;
49416;SDS011;35290;39.550;8.786;2022-11-15T15:19:18;10.60;;;3.00;;
49416;SDS011;35290;39.550;8.786;2022-11-15T15:21:43;12.15;;;3.65;;
49416;SDS011;35290;39.550;8.786;2022-11-15T15:24:13;10.15;;;3.05;;
49416;SDS011;35290;39.550;8.786;2022-11-15T15:26:39;10.25;;;3.60;;
49416;SDS011;35290;39.550;8.786;2022-11-15T15:29:06;8.23;;;3.00;;
49416;SDS011;35290;39.550;8.786;2022-11-15T15:31:33;14.07;;;3.38;;
49416;SDS011;35290;39.550;8.786;2022-11-15T15:34:00;13.65;;;3.53;;
49416;SDS011;35290;39.550;8.786;2022-11-15T15:36:25;10.13;;;3.00;;
49416;SDS011;35290;39.550;8.786;2022-11-15T15:38:51;16.35;;;3.92;;
49416;SDS011;35290;39.550;8.786;2022-11-15T15:41:17;15.98;;;3.40;;
49416;SDS011;35290;39.550;8.786;2022-11-15T15:43:43;15.32;;;3.65;;
49416;SDS011;35290;39.550;8.786;2022-11-15T15:46:12;6.68;;;3.45;;
49416;SDS011;35290;39.550;8.786;2022-11-15T15:48:39;13.25;;;4.43;;
49416;SDS011;35290;39.550;8.786;2022-11-15T15:51:05;9.38;;;3.65;;
49416;SDS011;35290;39.550;8.786;2022-11-15T15:53:33;12.18;;;4.28;;
49416;SDS011;35290;39.550;8.786;2022-11-15T15:55:58;13.25;;;3.90;;
49416;SDS011;35290;39.550;8.786;2022-11-15T15:58:24;14.35;;;4.20;;
49416;SDS011;35290;39.550;8.786;2022-11-15T16:00:49;11.27;;;4.45;;
49416;SDS011;35290;39.550;8.786;2022-11-15T16:03:15;16.13;;;4.47;;
49416;SDS011;35290;39.550;8.786;2022-11-15T16:05:41;11.70;;;4.30;;
49416;SDS011;35290;39.550;8.786;2022-11-15T16:08:14;13.70;;;4.80;;
49416;SDS011;35290;39.550;8.786;2022-11-15T16:10:43;12.15;;;4.90;;
49416;SDS011;35290;39.550;8.786;2022-11-15T16:13:09;12.02;;;4.97;;
49416;SDS011;35290;39.550;8.786;2022-11-15T16:15:34;18.48;;;5.88;;
49416;SDS011;35290;39.550;8.786;2022-11-15T16:18:00;16.52;;;6.30;;
49416;SDS011;35290;39.550;8.786;2022-11-15T16:23:12;34.97;;;8.20;;
49416;SDS011;35290;39.550;8.786;2022-11-15T16:26:00;38.97;;;8.20;;
49416;SDS011;35290;39.550;8.786;2022-11-15T16:28:28;30.48;;;7.45;;
49416;SDS011;35290;39.550;8.786;2022-11-15T16:31:07;30.75;;;7.22;;
49416;SDS011;35290;39.550;8.786;2022-11-15T16:33:33;19.58;;;6.30;;
49416;SDS011;35290;39.550;8.786;2022-11-15T16:35:59;21.35;;;6.43;;
49416;SDS011;35290;39.550;8.786;2022-11-15T16:38:24;20.85;;;6.88;;
49416;SDS011;35290;39.550;8.786;2022-11-15T16:40:50;23.10;;;6.25;;
49416;SDS011;35290;39.550;8.786;2022-11-15T16:43:15;19.85;;;7.10;;
49416;SDS011;35290;39.550;8.786;2022-11-15T16:45:41;18.10;;;7.55;;
49416;SDS011;35290;39.550;8.786;2022-11-15T16:48:07;22.45;;;7.13;;
49416;SDS011;35290;39.550;8.786;2022-11-15T16:50:45;14.43;;;7.13;;
49416;SDS011;35290;39.550;8.786;2022-11-15T16:53:11;20.88;;;8.20;;
49416;SDS011;35290;39.550;8.786;2022-11-15T16:55:36;27.23;;;11.65;;
49416;SDS011;35290;39.550;8.786;2022-11-15T16:58:02;26.58;;;12.43;;
49416;SDS011;35290;39.550;8.786;2022-11-15T17:00:27;25.50;;;13.10;;
49416;SDS011;35290;39.550;8.786;2022-11-15T17:02:53;34.75;;;15.68;;
49416;SDS011;35290;39.550;8.786;2022-11-15T17:05:21;29.83;;;14.70;;
49416;SDS011;35290;39.550;8.786;2022-11-15T17:07:48;29.50;;;15.68;;
49416;SDS011;35290;39.550;8.786;2022-11-15T17:10:18;29.48;;;15.88;;
49416;SDS011;35290;39.550;8.786;2022-11-15T17:12:44;30.75;;;15.10;;
49416;SDS011;35290;39.550;8.786;2022-11-15T17:15:10;31.60;;;19.17;;
49416;SDS011;35290;39.550;8.786;2022-11-15T17:17:37;42.65;;;19.40;;
49416;SDS011;35290;39.550;8.786;2022-11-15T17:20:02;36.15;;;18.02;;
49416;SDS011;35290;39.550;8.786;2022-11-15T17:22:36;39.42;;;19.52;;
49416;SDS011;35290;39.550;8.786;2022-11-15T17:25:02;31.33;;;18.17;;
49416;SDS011;35290;39.550;8.786;2022-11-15T17:27:28;33.58;;;18.60;;
49416;SDS011;35290;39.550;8.786;2022-11-15T17:29:54;31.30;;;18.08;;
49416;SDS011;35290;39.550;8.786;2022-11-15T17:32:20;41.92;;;21.27;;
49416;SDS011;35290;39.550;8.786;2022-11-15T17:34:45;42.97;;;22.58;;
49416;SDS011;35290;39.550;8.786;2022-11-15T17:37:11;38.15;;;23.35;;
49416;SDS011;35290;39.550;8.786;2022-11-15T17:39:36;49.00;;;30.02;;